Elliston Post Office, Australia
Current Conditions -  °F | °C
As of 8:00 PM on Monday 22 Dec 2014 (Local Time) from YCDU Reporting Station
Broken Clouds Broken Clouds  
Wind Chill: 66°   Ceiling: 2500
Heat Index: 66°   Visibility: 6mi
Dew Point: 57°   Wind: 16mph
Humidity: 73%   Direction: 210°SSW
Pressure: 29.88"   Gusts: NA
Location:  33.65°S, 134.88°E
Report Text: YCDU 221000Z AUTO 21014KT 9999 // SCT019 BKN025 BKN036 19/14 Q1012
Loading
Personal Weather Stations






























Interactive Weather Map New forecast layout! Learn more

10-Day Weather Forecast

Advertisements
Track Severe Weather on mobile